Terminal Aerodrome Forecast
Issued by NWS Pueblo, CO

Home | Current Version | Previous Version | Text Only | Print | Product List | Glossary On
Versions: 1 2 3 4 5 6 7 8 9 10 11 12 13 14 15 16 17 18 19 20 21 22 23 24 25 26 27 28 29 30 31 32 33 34 35 36 37 38 39 40 41 42 43 44 45 46 47 48
000
FTUS45 KPUB 202348
TAFCOS
TAF
KCOS 202348Z 2100/2124 12007KT P6SM FEW250
     FM210400 VRB06KT P6SM SCT250
     FM211600 16012KT P6SM SCT140 BKN250
     FM212000 18020G27KT P6SM BKN250=

USA.gov is the U.S. government's official web portal to all federal, state and local government web resources and services.